Costa Luminosa — ICGU — position and weather

sailwx.info

Track history (hours):
 
Tides and Currents Weather Stations Pressure Air Temp Water Temp Dewpoint Dewpoint Depression Visibility Wind Speed Wind Dir Waves Ship Positions

Costa Luminosa

Last reported at 2014-Nov-21 18:33 UTC. Time now 2014-Nov-21 19:19 UTC.
Position N 43°14' E 005°16'.

Length 292 m; draft 8.1 m.

Type: Ship. MMSI: 247257900.

Date/timePositionNaut miles runAvg speedWind from/ knotsBaromVisibWave heightAir tempDewpointWater temp
2014-Nov-21 18:33N 43°14' E 005°16'7 6.7
2014-Nov-21 17:28N 43°21' E 005°20'0 0.0
2014-Nov-21 16:31N 43°21' E 005°20'0 0.0
2014-Nov-21 15:31N 43°21' E 005°20'0 0.0
2014-Nov-21 14:28N 43°21' E 005°20'0 0.0
2014-Nov-21 13:19N 43°21' E 005°20'0 0.0
2014-Nov-21 12:28N 43°21' E 005°20'0 0.0
2014-Nov-21 11:25N 43°21' E 005°20'0 0.0
2014-Nov-21 10:31N 43°21' E 005°20'0 0.0
2014-Nov-21 09:25N 43°21' E 005°20'0 0.0
2014-Nov-21 08:28N 43°21' E 005°20'0 0.0
2014-Nov-21 07:31N 43°21' E 005°20'6 6.1
2014-Nov-21 06:33N 43°18' E 005°13'1111.4
2014-Nov-21 05:33N 43°07' E 005°06'6215.4
2014-Nov-21 01:30N 42°24' E 004°05'6716.5
2014-Nov-20 21:27N 41°39' E 002°58'1616.6
2014-Nov-20 20:30N 41°30' E 002°41'1515.9
2014-Nov-20 19:33N 41°21' E 002°25'1110.5
2014-Nov-20 18:30N 41°18' E 002°10'3 0.3
2014-Nov-20 07:33N 41°21' E 002°10'27 8.4
2014-Nov-20 04:21N 41°15' E 002°46'1010.7
2014-Nov-20 03:22N 41°15' E 002°59'6510.8
2014-Nov-19 21:20N 41°16' E 004°26'2310.5
2014-Nov-19 19:06N 41°16' E 004°57'1710.5
2014-Nov-19 17:26N 41°17' E 005°21'1310.3
2014-Nov-19 16:11N 41°17' E 005°38'1011.5
2014-Nov-19 15:18N 41°17' E 005°51'1212.3
2014-Nov-19 14:21N 41°17' E 006°07'1213.7
2014-Nov-19 13:30N 41°17' E 006°22'3114.4
2014-Nov-19 11:19N 41°18' E 007°04'156 4.1
2014-Nov-17 21:10N 43°15' E 009°24'914.3
2014-Nov-17 20:33N 43°23' E 009°17'1514.8
2014-Nov-17 19:33N 43°35' E 009°07'1514.9
2014-Nov-17 18:33N 43°48' E 008°56'1414.0
2014-Nov-17 17:33N 44°00' E 008°47'1413.5
2014-Nov-17 16:33N 44°12' E 008°37'9 8.8
2014-Nov-17 15:33N 44°19' E 008°30'0 0.0
2014-Nov-17 11:31N 44°19' E 008°30'1 0.3
2014-Nov-17 07:33N 44°19' E 008°31'9 8.8
2014-Nov-17 06:33N 44°11' E 008°28'1211.9
2014-Nov-17 05:33N 44°01' E 008°19'4113.7
2014-Nov-17 02:32N 43°32' E 007°38'1514.7
2014-Nov-17 01:32N 43°23' E 007°22'1515.3
2014-Nov-17 00:33N 43°13' E 007°06'1515.2
2014-Nov-16 23:33N 43°04' E 006°50'1514.9
2014-Nov-16 22:32N 42°56' E 006°32'1515.8
2014-Nov-16 21:33N 42°56' E 006°11'1616.3
2014-Nov-16 20:33N 43°01' E 005°50'1616.1
2014-Nov-16 19:33N 43°06' E 005°29'1514.6
2014-Nov-16 18:33N 43°16' E 005°15'6 5.4
2014-Nov-16 17:30N 43°21' E 005°20'0 0.0
2014-Nov-16 16:21N 43°21' E 005°20'0 0.0
2014-Nov-16 15:27N 43°21' E 005°20'0 0.0
2014-Nov-16 14:27N 43°21' E 005°20'0 0.0
2014-Nov-16 13:27N 43°21' E 005°20'0 0.0
2014-Nov-16 12:27N 43°21' E 005°20'0 0.0
2014-Nov-16 11:18N 43°21' E 005°20'0 0.0
2014-Nov-16 10:33N 43°21' E 005°20'0 0.0
2014-Nov-16 09:30N 43°21' E 005°20'0 0.0
2014-Nov-16 08:21N 43°21' E 005°20'0 0.3
2014-Nov-16 07:33N 43°21' E 005°20'8 7.7
2014-Nov-16 06:33N 43°16' E 005°11'1313.0
2014-Nov-16 05:34N 43°05' E 005°01'11315.1
2014-Nov-15 22:04N 41°46' E 003°12'4116.3
2014-Nov-15 19:34N 41°23' E 002°27'25 1.6
2014-Nov-15 03:33N 41°15' E 002°60'1310.8
2014-Nov-15 02:18N 41°16' E 003°18'810.5
2014-Nov-15 01:30N 41°16' E 003°29'4510.2
2014-Nov-14 21:03N 41°16' E 004°29'15 9.9
2014-Nov-14 19:32N 41°16' E 004°49'4410.6
2014-Nov-14 15:20N 41°17' E 005°48'1110.5
2014-Nov-14 14:16N 41°17' E 006°03'189 4.6
2014-Nov-12 21:31N 43°13' E 009°26'1414.1
2014-Nov-12 20:30N 43°25' E 009°15'1313.8
2014-Nov-12 19:33N 43°36' E 009°06'1413.7
2014-Nov-12 18:34N 43°48' E 008°56'1413.5
2014-Nov-12 17:33N 43°59' E 008°46'1514.0
2014-Nov-12 16:31N 44°12' E 008°36'8 8.7
2014-Nov-12 15:33N 44°19' E 008°29'0 0.0
2014-Nov-12 14:33N 44°19' E 008°29'0 0.0
2014-Nov-12 13:33N 44°19' E 008°29'0 0.0
2014-Nov-12 12:33N 44°19' E 008°29'0 0.0
2014-Nov-12 11:33N 44°19' E 008°29'0 0.0
2014-Nov-12 10:33N 44°19' E 008°29'0 0.0
2014-Nov-12 09:30N 44°19' E 008°29'0 0.0
2014-Nov-12 08:30N 44°19' E 008°29'0 0.1
2014-Nov-12 07:34N 44°19' E 008°29'7 6.7
2014-Nov-12 06:33N 44°12' E 008°30'1716.7
2014-Nov-12 05:33N 43°58' E 008°17'4515.1
2014-Nov-12 02:33N 43°28' E 007°30'1616.1
2014-Nov-12 01:33N 43°18' E 007°13'1616.0
2014-Nov-12 00:33N 43°08' E 006°56'1615.7
2014-Nov-11 23:33N 42°58' E 006°39'1515.2
2014-Nov-11 22:33N 42°55' E 006°18'1514.9
2014-Nov-11 21:33N 42°56' E 005°58'1514.7
2014-Nov-11 20:33N 42°55' E 005°38'1414.1
2014-Nov-11 19:34N 43°05' E 005°25'1414.1
2014-Nov-11 18:33N 43°17' E 005°15'  
Track history (hours):
 
Tides and Currents Weather Stations Pressure Air Temp Water Temp Dewpoint Dewpoint Depression Visibility Wind Speed Wind Dir Waves Ship Positions

Costa Luminosa

Last reported at 2014-Nov-21 18:33 UTC. Time now 2014-Nov-21 19:19 UTC.
Position N 43°14' E 005°16'.

Length 292 m; draft 8.1 m.

Type: Ship. MMSI: 247257900.

Date/timePositionNaut miles runAvg speedWind from/ knotsBaromVisibWave heightAir tempDewpointWater temp
2014-Nov-21 18:33N 43°14' E 005°16'7 6.7
2014-Nov-21 17:28N 43°21' E 005°20'0 0.0
2014-Nov-21 16:31N 43°21' E 005°20'0 0.0
2014-Nov-21 15:31N 43°21' E 005°20'0 0.0
2014-Nov-21 14:28N 43°21' E 005°20'0 0.0
2014-Nov-21 13:19N 43°21' E 005°20'0 0.0
2014-Nov-21 12:28N 43°21' E 005°20'0 0.0
2014-Nov-21 11:25N 43°21' E 005°20'0 0.0
2014-Nov-21 10:31N 43°21' E 005°20'0 0.0
2014-Nov-21 09:25N 43°21' E 005°20'0 0.0
2014-Nov-21 08:28N 43°21' E 005°20'0 0.0
2014-Nov-21 07:31N 43°21' E 005°20'6 6.1
2014-Nov-21 06:33N 43°18' E 005°13'1111.4
2014-Nov-21 05:33N 43°07' E 005°06'6215.4
2014-Nov-21 01:30N 42°24' E 004°05'6716.5
2014-Nov-20 21:27N 41°39' E 002°58'1616.6
2014-Nov-20 20:30N 41°30' E 002°41'1515.9
2014-Nov-20 19:33N 41°21' E 002°25'1110.5
2014-Nov-20 18:30N 41°18' E 002°10'3 0.3
2014-Nov-20 07:33N 41°21' E 002°10'27 8.4
2014-Nov-20 04:21N 41°15' E 002°46'1010.7
2014-Nov-20 03:22N 41°15' E 002°59'6510.8
2014-Nov-19 21:20N 41°16' E 004°26'2310.5
2014-Nov-19 19:06N 41°16' E 004°57'1710.5
2014-Nov-19 17:26N 41°17' E 005°21'1310.3
2014-Nov-19 16:11N 41°17' E 005°38'1011.5
2014-Nov-19 15:18N 41°17' E 005°51'1212.3
2014-Nov-19 14:21N 41°17' E 006°07'1213.7
2014-Nov-19 13:30N 41°17' E 006°22'3114.4
2014-Nov-19 11:19N 41°18' E 007°04'156 4.1
2014-Nov-17 21:10N 43°15' E 009°24'914.3
2014-Nov-17 20:33N 43°23' E 009°17'1514.8
2014-Nov-17 19:33N 43°35' E 009°07'1514.9
2014-Nov-17 18:33N 43°48' E 008°56'1414.0
2014-Nov-17 17:33N 44°00' E 008°47'1413.5
2014-Nov-17 16:33N 44°12' E 008°37'9 8.8
2014-Nov-17 15:33N 44°19' E 008°30'0 0.0
2014-Nov-17 11:31N 44°19' E 008°30'1 0.3
2014-Nov-17 07:33N 44°19' E 008°31'9 8.8
2014-Nov-17 06:33N 44°11' E 008°28'1211.9
2014-Nov-17 05:33N 44°01' E 008°19'4113.7
2014-Nov-17 02:32N 43°32' E 007°38'1514.7
2014-Nov-17 01:32N 43°23' E 007°22'1515.3
2014-Nov-17 00:33N 43°13' E 007°06'1515.2
2014-Nov-16 23:33N 43°04' E 006°50'1514.9
2014-Nov-16 22:32N 42°56' E 006°32'1515.8
2014-Nov-16 21:33N 42°56' E 006°11'1616.3
2014-Nov-16 20:33N 43°01' E 005°50'1616.1
2014-Nov-16 19:33N 43°06' E 005°29'1514.6
2014-Nov-16 18:33N 43°16' E 005°15'6 5.4
2014-Nov-16 17:30N 43°21' E 005°20'0 0.0
2014-Nov-16 16:21N 43°21' E 005°20'0 0.0
2014-Nov-16 15:27N 43°21' E 005°20'0 0.0
2014-Nov-16 14:27N 43°21' E 005°20'0 0.0
2014-Nov-16 13:27N 43°21' E 005°20'0 0.0
2014-Nov-16 12:27N 43°21' E 005°20'0 0.0
2014-Nov-16 11:18N 43°21' E 005°20'0 0.0
2014-Nov-16 10:33N 43°21' E 005°20'0 0.0
2014-Nov-16 09:30N 43°21' E 005°20'0 0.0
2014-Nov-16 08:21N 43°21' E 005°20'0 0.3
2014-Nov-16 07:33N 43°21' E 005°20'8 7.7
2014-Nov-16 06:33N 43°16' E 005°11'1313.0
2014-Nov-16 05:34N 43°05' E 005°01'11315.1
2014-Nov-15 22:04N 41°46' E 003°12'4116.3
2014-Nov-15 19:34N 41°23' E 002°27'25 1.6
2014-Nov-15 03:33N 41°15' E 002°60'1310.8
2014-Nov-15 02:18N 41°16' E 003°18'810.5
2014-Nov-15 01:30N 41°16' E 003°29'4510.2
2014-Nov-14 21:03N 41°16' E 004°29'15 9.9
2014-Nov-14 19:32N 41°16' E 004°49'4410.6
2014-Nov-14 15:20N 41°17' E 005°48'1110.5
2014-Nov-14 14:16N 41°17' E 006°03'189 4.6
2014-Nov-12 21:31N 43°13' E 009°26'1414.1
2014-Nov-12 20:30N 43°25' E 009°15'1313.8
2014-Nov-12 19:33N 43°36' E 009°06'1413.7
2014-Nov-12 18:34N 43°48' E 008°56'1413.5
2014-Nov-12 17:33N 43°59' E 008°46'1514.0
2014-Nov-12 16:31N 44°12' E 008°36'8 8.7
2014-Nov-12 15:33N 44°19' E 008°29'0 0.0
2014-Nov-12 14:33N 44°19' E 008°29'0 0.0
2014-Nov-12 13:33N 44°19' E 008°29'0 0.0
2014-Nov-12 12:33N 44°19' E 008°29'0 0.0
2014-Nov-12 11:33N 44°19' E 008°29'0 0.0
2014-Nov-12 10:33N 44°19' E 008°29'0 0.0
2014-Nov-12 09:30N 44°19' E 008°29'0 0.0
2014-Nov-12 08:30N 44°19' E 008°29'0 0.1
2014-Nov-12 07:34N 44°19' E 008°29'7 6.7
2014-Nov-12 06:33N 44°12' E 008°30'1716.7
2014-Nov-12 05:33N 43°58' E 008°17'4515.1
2014-Nov-12 02:33N 43°28' E 007°30'1616.1
2014-Nov-12 01:33N 43°18' E 007°13'1616.0
2014-Nov-12 00:33N 43°08' E 006°56'1615.7
2014-Nov-11 23:33N 42°58' E 006°39'1515.2
2014-Nov-11 22:33N 42°55' E 006°18'1514.9
2014-Nov-11 21:33N 42°56' E 005°58'1514.7
2014-Nov-11 20:33N 42°55' E 005°38'1414.1
2014-Nov-11 19:34N 43°05' E 005°25'1414.1
2014-Nov-11 18:33N 43°17' E 005°15'  

Dump ship's entire track history